Time;durP1;ratioP1;P1;durP2;ratioP2;P2;SDS_P1;SDS_P2;PMS_P1;PMS_P2;Temp;Humidity;BMP_temperature;BMP_pressure;BME280_temperature;BME280_humidity;BME280_pressure;Samples;Min_cycle;Max_cycle;Signal;HPM_P1;HPM_P2
2021/09/22 00:02:29;;;;;;;;;;;;;;;17.84;62.30;102117.28;5123721;22;99668;-88
2021/09/22 00:07:45;;;;;;;;;;;;;;;18.44;60.40;102131.50;5932574;22;100121;-84
2021/09/22 00:13:04;;;;;;;;;;;;;;;17.92;61.92;102133.84;5178969;22;100443;-86
2021/09/22 00:21:06;;;;;;;;;;;;;;;18.29;60.33;102129.53;5479225;22;100317;-86
2021/09/22 00:23:41;;;;;;;;;;;;;;;18.13;60.65;102121.31;5002645;28;96376;-87
2021/09/22 00:26:11;;;;;;;;;;;;;;;18.37;60.42;102124.69;5349761;22;99156;-81
2021/09/22 00:52:37;;;;;;;;;;;;;;;17.87;61.92;102110.91;5081187;27;96076;-81
2021/09/22 00:55:06;;;;;;;;;;;;;;;17.92;61.86;102111.56;5081435;27;98081;-82
2021/09/22 00:57:40;;;;;;;;;;;;;;;17.69;62.73;102114.41;5081773;27;98639;-84
2021/09/22 01:00:12;;;;;;;;;;;;;;;17.71;62.71;102109.88;5064036;27;97821;-86
2021/09/22 01:02:39;;;;;;;;;;;;;;;17.46;63.20;102102.84;5067271;27;96720;-88
2021/09/22 01:05:17;;;;;;;;;;;;;;;17.76;62.42;102106.06;5061525;22;96850;-86
2021/09/22 01:07:44;;;;;;;;;;;;;;;17.88;61.87;102108.19;5053392;27;99174;-87
2021/09/22 01:10:15;;;;;;;;;;;;;;;17.88;62.02;102105.50;5096347;27;99299;-86
2021/09/22 01:12:42;;;;;;;;;;;;;;;18.09;61.80;102106.34;5100099;27;96731;-87
2021/09/22 01:18:13;;;;;;;;;;;;;;;18.10;61.23;102108.09;5063813;27;96388;-86
2021/09/22 01:20:43;;;;;;;;;;;;;;;18.20;60.82;102108.53;5018712;28;96755;-85
2021/09/22 01:23:15;;;;;;;;;;;;;;;18.02;61.25;102110.25;5015188;28;96944;-87
2021/09/22 01:25:46;;;;;;;;;;;;;;;17.95;61.79;102121.28;5007785;28;98896;-87
2021/09/22 01:28:14;;;;;;;;;;;;;;;17.71;62.13;102129.44;5001641;28;97719;-87
2021/09/22 01:30:41;;;;;;;;;;;;;;;17.89;61.90;102117.94;5000905;28;96832;-88
2021/09/22 01:33:10;;;;;;;;;;;;;;;17.89;61.68;102120.63;5001146;28;98082;-86
2021/09/22 01:35:41;;;;;;;;;;;;;;;17.79;61.88;102113.91;5000706;28;98201;-87
2021/09/22 01:38:11;;;;;;;;;;;;;;;17.47;63.21;102114.41;4999241;28;97240;-86
2021/09/22 01:40:51;;;;;;;;;;;;;;;17.69;62.51;102120.63;5002608;28;96794;-86
2021/09/22 01:43:19;;;;;;;;;;;;;;;17.76;62.10;102118.53;5001263;28;99011;-87
2021/09/22 01:45:46;;;;;;;;;;;;;;;17.91;61.62;102123.22;5007298;28;98021;-87
2021/09/22 01:48:12;;;;;;;;;;;;;;;17.36;63.50;102127.38;5005177;28;96612;-87
2021/09/22 01:50:39;;;;;;;;;;;;;;;17.74;62.29;102123.06;5000060;28;96643;-86
2021/09/22 01:53:05;;;;;;;;;;;;;;;17.83;61.68;102120.88;4998777;28;97994;-86
2021/09/22 01:55:33;;;;;;;;;;;;;;;18.14;61.12;102122.19;5033422;28;98676;-86
2021/09/22 01:58:01;;;;;;;;;;;;;;;17.63;62.62;102131.56;5001740;28;96862;-87
2021/09/22 02:00:30;;;;;;;;;;;;;;;18.13;60.88;102121.31;5000719;28;96850;-87
2021/09/22 02:02:56;;;;;;;;;;;;;;;17.97;60.98;102122.94;5001615;28;96981;-87
2021/09/22 02:05:26;;;;;;;;;;;;;;;17.79;61.29;102127.28;4999879;28;99040;-87
2021/09/22 02:07:53;;;;;;;;;;;;;;;17.79;61.52;102123.75;5001093;28;96640;-87
2021/09/22 02:10:23;;;;;;;;;;;;;;;17.66;62.04;102122.53;5001508;28;96860;-86
2021/09/22 02:12:52;;;;;;;;;;;;;;;17.80;61.21;102118.34;5001643;28;97823;-86
2021/09/22 02:15:20;;;;;;;;;;;;;;;17.74;61.67;102123.06;5013733;28;99092;-84
2021/09/22 02:17:47;;;;;;;;;;;;;;;17.46;62.39;102115.34;5035666;27;96081;-86
2021/09/22 02:20:14;;;;;;;;;;;;;;;17.52;62.33;102115.09;5038952;27;97982;-85
2021/09/22 02:22:41;;;;;;;;;;;;;;;17.17;62.98;102121.91;5033635;28;98434;-86
2021/09/22 02:25:08;;;;;;;;;;;;;;;16.85;64.23;102120.56;5019347;28;99236;-87
2021/09/22 02:27:35;;;;;;;;;;;;;;;17.40;62.52;102119.16;5016193;28;96658;-86
2021/09/22 02:30:03;;;;;;;;;;;;;;;17.37;62.54;102129.09;5006601;28;97122;-87
2021/09/22 02:32:31;;;;;;;;;;;;;;;17.60;61.79;102123.63;5005918;28;97617;-86
2021/09/22 02:34:58;;;;;;;;;;;;;;;17.88;60.55;102129.56;5012323;28;100865;-86
2021/09/22 02:37:24;;;;;;;;;;;;;;;17.62;61.08;102134.31;5013593;28;96594;-87
2021/09/22 02:39:52;;;;;;;;;;;;;;;17.08;62.84;102119.59;5019509;28;96781;-86
2021/09/22 02:42:20;;;;;;;;;;;;;;;17.18;62.61;102122.78;5009269;28;100749;-88
2021/09/22 02:44:48;;;;;;;;;;;;;;;17.33;62.57;102125.69;5006572;28;100002;-87
2021/09/22 02:47:15;;;;;;;;;;;;;;;17.37;62.42;102123.75;5006322;28;96666;-86
2021/09/22 02:49:43;;;;;;;;;;;;;;;17.72;60.62;102116.94;5013899;28;96709;-87
2021/09/22 02:52:12;;;;;;;;;;;;;;;17.50;61.40;102125.84;5010238;28;100707;-88
2021/09/22 02:54:40;;;;;;;;;;;;;;;17.79;60.77;102121.06;5009798;28;100162;-86
2021/09/22 02:57:10;;;;;;;;;;;;;;;17.36;61.59;102130.91;5004463;28;96613;-86
2021/09/22 02:59:38;;;;;;;;;;;;;;;17.21;61.76;102118.19;5006181;28;96841;-86
2021/09/22 03:02:05;;;;;;;;;;;;;;;17.33;61.94;102120.34;5007235;28;96809;-87
2021/09/22 03:04:32;;;;;;;;;;;;;;;17.43;61.44;102126.19;5022871;28;98583;-86
2021/09/22 03:07:00;;;;;;;;;;;;;;;17.50;60.84;102124.97;5013003;28;96503;-87
2021/09/22 03:09:28;;;;;;;;;;;;;;;17.76;59.95;102123.88;5014562;28;96795;-86
2021/09/22 03:11:56;;;;;;;;;;;;;;;17.24;61.22;102125.22;5022010;28;96995;-87
2021/09/22 03:14:23;;;;;;;;;;;;;;;17.41;61.19;102130.69;5022662;28;98016;-86
2021/09/22 03:16:56;;;;;;;;;;;;;;;17.21;61.74;102128.84;5016786;28;96804;-86
2021/09/22 03:19:24;;;;;;;;;;;;;;;17.26;61.59;102136.72;5008491;28;96632;-87
2021/09/22 03:21:54;;;;;;;;;;;;;;;17.10;61.86;102136.44;5008651;28;98950;-87
2021/09/22 03:24:22;;;;;;;;;;;;;;;17.41;60.90;102134.25;5006257;28;99913;-86
2021/09/22 03:26:53;;;;;;;;;;;;;;;17.21;61.36;102130.66;4987732;28;96679;-86
2021/09/22 03:29:20;;;;;;;;;;;;;;;17.42;60.57;102138.66;4985457;28;97215;-86
2021/09/22 03:31:47;;;;;;;;;;;;;;;17.26;60.61;102142.91;5010066;28;98083;-86
2021/09/22 03:34:14;;;;;;;;;;;;;;;17.40;60.55;102155.69;5019945;28;99978;-86
2021/09/22 03:36:43;;;;;;;;;;;;;;;17.35;60.92;102158.56;5018913;28;96743;-86
2021/09/22 03:39:11;;;;;;;;;;;;;;;17.26;60.90;102164.28;5023289;28;95831;-85
2021/09/22 03:41:39;;;;;;;;;;;;;;;17.32;60.79;102157.81;5023035;28;98368;-83
2021/09/22 03:44:06;;;;;;;;;;;;;;;17.02;61.75;102158.13;5021307;28;97686;-88
2021/09/22 03:46:33;;;;;;;;;;;;;;;16.86;62.21;102149.00;5020238;28;96561;-87
2021/09/22 03:49:00;;;;;;;;;;;;;;;16.77;62.38;102168.03;5023582;28;95998;-86
2021/09/22 03:51:26;;;;;;;;;;;;;;;16.62;62.89;102153.47;5023124;28;98994;-86
2021/09/22 03:53:53;;;;;;;;;;;;;;;16.84;62.47;102164.19;5022667;28;99762;-84
2021/09/22 03:56:19;;;;;;;;;;;;;;;16.91;62.33;102156.81;5003422;28;96010;-86
2021/09/22 03:58:47;;;;;;;;;;;;;;;16.38;64.04;102164.19;5003521;28;96051;-85
2021/09/22 04:01:16;;;;;;;;;;;;;;;16.48;64.00;102166.44;5022049;28;98556;-86
2021/09/22 04:03:51;;;;;;;;;;;;;;;16.39;64.10;102156.13;5008636;28;99161;-87
2021/09/22 04:06:18;;;;;;;;;;;;;;;16.65;63.13;102160.50;5004594;28;96676;-86
2021/09/22 04:08:44;;;;;;;;;;;;;;;16.76;62.98;102160.06;5003972;28;96840;-86
2021/09/22 04:11:10;;;;;;;;;;;;;;;16.77;63.09;102157.34;5004155;28;100840;-87
2021/09/22 04:13:37;;;;;;;;;;;;;;;17.06;62.06;102182.91;5004423;28;99221;-87
2021/09/22 04:16:07;;;;;;;;;;;;;;;16.84;62.61;102180.22;5005330;28;96860;-86
2021/09/22 04:18:34;;;;;;;;;;;;;;;16.51;63.49;102176.13;5004948;28;96647;-86
2021/09/22 04:21:00;;;;;;;;;;;;;;;16.26;64.95;102179.72;5009372;28;99174;-87
2021/09/22 04:23:28;;;;;;;;;;;;;;;16.69;62.99;102183.47;5009469;28;100086;-86
2021/09/22 04:25:55;;;;;;;;;;;;;;;16.85;62.51;102192.63;5009875;28;96639;-86
2021/09/22 04:28:23;;;;;;;;;;;;;;;16.85;62.33;102179.28;5014339;28;96599;-86
2021/09/22 04:30:52;;;;;;;;;;;;;;;16.67;62.98;102186.19;5019392;28;98941;-85
2021/09/22 04:33:20;;;;;;;;;;;;;;;16.50;63.57;102185.06;5021362;28;96604;-86
2021/09/22 04:35:47;;;;;;;;;;;;;;;16.66;62.79;102189.81;5021680;28;97416;-86
2021/09/22 04:38:15;;;;;;;;;;;;;;;16.33;63.77;102197.25;5021244;28;95924;-87
2021/09/22 04:40:42;;;;;;;;;;;;;;;16.60;63.23;102206.06;5008673;28;98400;-86
2021/09/22 04:43:08;;;;;;;;;;;;;;;17.12;61.45;102194.22;5004837;28;100611;-86
2021/09/22 04:45:38;;;;;;;;;;;;;;;16.87;61.88;102200.59;5004184;28;96762;-86
2021/09/22 04:48:07;;;;;;;;;;;;;;;16.56;62.93;102195.50;5004454;28;96660;-86
2021/09/22 04:50:35;;;;;;;;;;;;;;;16.91;62.13;102196.88;5002293;28;98899;-86
2021/09/22 04:53:02;;;;;;;;;;;;;;;16.98;61.85;102207.25;5003714;28;98237;-86
2021/09/22 04:55:32;;;;;;;;;;;;;;;16.77;62.27;102204.53;5005774;28;96568;-86
2021/09/22 04:57:59;;;;;;;;;;;;;;;16.80;62.39;102204.44;5007638;28;96624;-86
2021/09/22 05:00:26;;;;;;;;;;;;;;;17.02;61.53;102213.31;5007051;28;99016;-87
2021/09/22 05:02:52;;;;;;;;;;;;;;;16.67;62.71;102212.03;5002875;28;101254;-86
2021/09/22 05:05:20;;;;;;;;;;;;;;;16.69;62.95;102224.38;5010489;28;96778;-93
2021/09/22 05:10:57;;;;;;;;;;;;;;;16.89;61.98;102223.63;5011899;27;97070;-87
2021/09/22 05:13:26;;;;;;;;;;;;;;;16.74;62.46;102232.19;5002073;28;98191;-83
2021/09/22 05:15:57;;;;;;;;;;;;;;;17.16;61.11;102232.34;5014786;28;96324;-79
2021/09/22 05:18:23;;;;;;;;;;;;;;;17.26;60.32;102232.88;5022225;28;95949;-87
2021/09/22 05:20:50;;;;;;;;;;;;;;;17.26;60.17;102228.41;5006818;28;100984;-87
2021/09/22 05:23:21;;;;;;;;;;;;;;;16.62;62.28;102230.88;5002202;28;99013;-93
2021/09/22 05:25:50;;;;;;;;;;;;;;;17.10;60.95;102243.28;5005397;28;96603;-86
2021/09/22 05:28:16;;;;;;;;;;;;;;;17.18;60.71;102234.97;5005661;28;96838;-86
2021/09/22 05:30:44;;;;;;;;;;;;;;;17.48;59.74;102239.94;4986479;28;96822;-86
2021/09/22 05:33:11;;;;;;;;;;;;;;;17.48;59.44;102239.06;4988981;28;97703;-87
2021/09/22 05:35:38;;;;;;;;;;;;;;;17.27;60.23;102245.28;5008138;28;96744;-86
2021/09/22 05:38:05;;;;;;;;;;;;;;;17.26;60.08;102246.22;5004637;28;96884;-86
2021/09/22 05:40:33;;;;;;;;;;;;;;;17.03;60.88;102248.00;5004670;28;97114;-86
2021/09/22 05:43:00;;;;;;;;;;;;;;;17.00;60.93;102248.09;5006635;28;96757;-90
2021/09/22 05:45:39;;;;;;;;;;;;;;;17.12;60.57;102244.97;5009296;28;96839;-91
2021/09/22 05:48:05;;;;;;;;;;;;;;;17.21;60.51;102245.53;5011617;28;96722;-89
2021/09/22 05:53:14;;;;;;;;;;;;;;;17.18;60.49;102256.34;5018347;28;99239;-90
2021/09/22 05:55:42;;;;;;;;;;;;;;;17.05;60.81;102261.28;5026908;22;99004;-87
2021/09/22 05:58:09;;;;;;;;;;;;;;;16.86;61.41;102257.59;4960024;28;96659;-86
2021/09/22 06:03:32;;;;;;;;;;;;;;;17.22;60.48;102252.59;4976502;28;98698;-84
2021/09/22 06:05:58;;;;;;;;;;;;;;;16.69;61.61;102251.06;4964617;28;96046;-85
2021/09/22 06:08:25;;;;;;;;;;;;;;;17.19;60.68;102258.97;4964406;28;96077;-83
2021/09/22 06:10:55;;;;;;;;;;;;;;;17.21;60.25;102257.06;4958570;28;96948;-86
2021/09/22 06:13:24;;;;;;;;;;;;;;;17.16;60.75;102253.72;4969340;28;99983;-86
2021/09/22 06:18:31;;;;;;;;;;;;;;;17.05;61.06;102256.81;4964203;28;96057;-84
2021/09/22 06:20:57;;;;;;;;;;;;;;;16.44;62.95;102258.19;4964755;28;98938;-81
2021/09/22 06:23:28;;;;;;;;;;;;;;;16.86;61.90;102258.47;4976246;28;99118;-83
2021/09/22 06:26:02;;;;;;;;;;;;;;;17.31;60.54;102262.94;4960089;28;97674;-86
2021/09/22 06:28:29;;;;;;;;;;;;;;;17.66;59.29;102267.75;4964819;28;96168;-82
2021/09/22 06:31:06;;;;;;;;;;;;;;;17.54;59.36;102273.56;4965132;28;96856;-82
2021/09/22 06:33:34;;;;;;;;;;;;;;;17.47;59.54;102272.94;4967172;28;99078;-86
2021/09/22 06:36:01;;;;;;;;;;;;;;;17.59;59.26;102276.06;4950809;28;96757;-86
2021/09/22 06:38:28;;;;;;;;;;;;;;;17.57;59.45;102286.81;4941821;28;96916;-86
2021/09/22 06:40:58;;;;;;;;;;;;;;;17.51;59.21;102287.94;4958481;28;98796;-87
2021/09/22 06:43:27;;;;;;;;;;;;;;;17.72;58.88;102275.53;4957304;28;99087;-85
2021/09/22 06:45:54;;;;;;;;;;;;;;;17.44;59.63;102275.75;4990968;22;97023;-86
2021/09/22 06:48:23;;;;;;;;;;;;;;;17.69;59.00;102281.00;5037322;28;98552;-87
2021/09/22 06:50:50;;;;;;;;;;;;;;;17.85;58.26;102284.78;5036017;28;100174;-86
2021/09/22 06:53:16;;;;;;;;;;;;;;;17.52;59.25;102294.16;5037335;28;99774;-86
2021/09/22 06:55:44;;;;;;;;;;;;;;;17.74;59.04;102295.06;5042905;28;96569;-87
2021/09/22 06:58:16;;;;;;;;;;;;;;;18.06;58.01;102295.50;5022523;28;96002;-86
2021/09/22 07:03:23;;;;;;;;;;;;;;;18.22;56.85;102283.25;5021460;28;98798;-86
2021/09/22 07:05:50;;;;;;;;;;;;;;;18.38;56.71;102275.44;5030524;28;96718;-87
2021/09/22 07:08:17;;;;;;;;;;;;;;;18.28;56.85;102291.00;5040716;28;98495;-86
2021/09/22 07:10:44;;;;;;;;;;;;;;;18.41;56.60;102284.19;4987573;28;99013;-86
2021/09/22 07:13:13;;;;;;;;;;;;;;;18.38;56.93;102292.31;5038545;28;99006;-87
2021/09/22 07:15:40;;;;;;;;;;;;;;;18.55;56.39;102286.25;5033997;28;96571;-87
2021/09/22 07:18:06;;;;;;;;;;;;;;;18.83;55.82;102288.59;5030469;28;97058;-87
2021/09/22 07:20:33;;;;;;;;;;;;;;;18.16;57.05;102297.75;5037725;28;99050;-87
2021/09/22 07:23:02;;;;;;;;;;;;;;;17.97;58.29;102295.91;5031001;28;100404;-86
2021/09/22 07:25:29;;;;;;;;;;;;;;;17.91;58.11;102297.91;5035062;28;96682;-87
2021/09/22 07:27:55;;;;;;;;;;;;;;;17.51;59.83;102309.31;5031520;28;96600;-86
2021/09/22 07:30:26;;;;;;;;;;;;;;;17.69;59.63;102313.09;5036443;28;98123;-86
2021/09/22 07:32:52;;;;;;;;;;;;;;;18.09;58.36;102315.00;5038033;28;100638;-86
2021/09/22 07:35:19;;;;;;;;;;;;;;;17.97;58.37;102315.50;5035494;28;96975;-86
2021/09/22 07:37:47;;;;;;;;;;;;;;;18.08;58.34;102317.72;5035618;28;96646;-87
2021/09/22 07:40:18;;;;;;;;;;;;;;;18.51;56.92;102320.28;5035136;28;99132;-86
2021/09/22 07:42:44;;;;;;;;;;;;;;;18.73;56.49;102314.03;5013779;28;99293;-87
2021/09/22 07:45:13;;;;;;;;;;;;;;;18.08;58.06;102326.63;5028252;28;96810;-86
2021/09/22 07:47:41;;;;;;;;;;;;;;;18.05;58.56;102328.56;5020764;28;97632;-87
2021/09/22 07:50:12;;;;;;;;;;;;;;;18.55;57.26;102327.31;5005196;28;99567;-86
2021/09/22 07:52:39;;;;;;;;;;;;;;;18.43;57.09;102332.28;5030185;28;99227;-86
2021/09/22 07:55:06;;;;;;;;;;;;;;;17.81;58.92;102336.66;5040896;28;96560;-86
2021/09/22 07:57:33;;;;;;;;;;;;;;;18.42;57.21;102326.06;5042573;28;96633;-87
2021/09/22 08:00:00;;;;;;;;;;;;;;;18.22;57.44;102326.91;5006306;28;101137;-86
2021/09/22 08:02:28;;;;;;;;;;;;;;;18.20;57.50;102326.09;5021832;28;100962;-87
2021/09/22 08:04:55;;;;;;;;;;;;;;;18.37;57.26;102333.44;5024790;28;97020;-86
2021/09/22 08:07:22;;;;;;;;;;;;;;;18.46;56.91;102319.63;5023868;28;96749;-86
2021/09/22 08:09:49;;;;;;;;;;;;;;;18.00;58.27;102327.88;5025097;28;99945;-87
2021/09/22 08:12:17;;;;;;;;;;;;;;;18.29;57.63;102330.19;5022346;28;98071;-87
2021/09/22 08:17:31;;;;;;;;;;;;;;;18.40;56.93;102352.00;5026524;28;96864;-87
2021/09/22 08:20:00;;;;;;;;;;;;;;;18.53;56.52;102350.56;5009303;28;99325;-84
2021/09/22 08:22:27;;;;;;;;;;;;;;;18.11;57.76;102347.91;5027915;28;97152;-87
2021/09/22 08:24:53;;;;;;;;;;;;;;;18.21;57.40;102353.72;5043540;28;96585;-87
2021/09/22 08:27:20;;;;;;;;;;;;;;;18.61;56.70;102351.13;5052973;28;96499;-84
2021/09/22 08:29:48;;;;;;;;;;;;;;;18.78;56.19;102345.00;5033237;28;98769;-86
2021/09/22 08:32:15;;;;;;;;;;;;;;;19.02;55.59;102346.63;5033231;28;99835;-86
2021/09/22 08:34:42;;;;;;;;;;;;;;;19.32;54.42;102357.72;5025733;28;97196;-86
2021/09/22 08:37:12;;;;;;;;;;;;;;;18.96;55.12;102349.56;5026154;28;96778;-86
2021/09/22 08:39:39;;;;;;;;;;;;;;;18.49;56.06;102350.75;5021070;28;99690;-87
2021/09/22 08:42:18;;;;;;;;;;;;;;;18.61;56.58;102351.13;5014269;28;99128;-90
2021/09/22 08:47:26;;;;;;;;;;;;;;;18.60;56.72;102336.00;5013731;28;96820;-86
2021/09/22 08:49:59;;;;;;;;;;;;;;;18.92;55.51;102336.38;5006971;28;99642;-87
2021/09/22 08:52:29;;;;;;;;;;;;;;;18.60;56.43;102332.44;5011047;28;100132;-87
2021/09/22 08:54:57;;;;;;;;;;;;;;;18.80;55.98;102326.22;5023789;28;96805;-85
2021/09/22 08:57:26;;;;;;;;;;;;;;;19.39;54.22;102327.00;5015450;28;97820;-85
2021/09/22 08:59:52;;;;;;;;;;;;;;;19.67;54.26;102326.59;5012162;28;96873;-86
2021/09/22 09:02:26;;;;;;;;;;;;;;;19.99;53.11;102329.50;5005588;28;98000;-85
2021/09/22 09:05:02;;;;;;;;;;;;;;;20.22;51.99;102331.88;5003471;28;97143;-85
2021/09/22 09:07:46;;;;;;;;;;;;;;;19.57;53.37;102333.31;5009835;28;97120;-85
2021/09/22 09:10:15;;;;;;;;;;;;;;;19.67;53.75;102337.31;5008223;28;100859;-86
2021/09/22 09:12:43;;;;;;;;;;;;;;;19.91;52.87;102329.88;5009149;28;97913;-84
2021/09/22 09:15:11;;;;;;;;;;;;;;;20.29;51.87;102336.84;5028110;28;96750;-85
2021/09/22 09:17:41;;;;;;;;;;;;;;;20.38;51.65;102334.69;5010674;28;96784;-86
2021/09/22 09:20:18;;;;;;;;;;;;;;;20.12;52.13;102339.53;5003476;28;100339;-85
2021/09/22 09:22:55;;;;;;;;;;;;;;;19.89;52.75;102342.47;5001920;28;98473;-85
2021/09/22 09:25:24;;;;;;;;;;;;;;;19.50;53.51;102340.78;5008541;28;96675;-86
2021/09/22 09:27:53;;;;;;;;;;;;;;;20.36;51.77;102332.06;5010703;28;96822;-87
2021/09/22 09:30:20;;;;;;;;;;;;;;;20.11;52.50;102337.81;5028318;28;97893;-85
2021/09/22 09:33:01;;;;;;;;;;;;;;;20.22;51.69;102335.44;5016372;28;98171;-89
2021/09/22 09:35:29;;;;;;;;;;;;;;;20.49;51.14;102330.50;5017554;28;96806;-87
2021/09/22 09:37:58;;;;;;;;;;;;;;;20.12;51.93;102328.81;4993449;28;96990;-87
2021/09/22 09:40:26;;;;;;;;;;;;;;;20.26;51.72;102325.44;5008199;28;99533;-87
2021/09/22 09:43:00;;;;;;;;;;;;;;;20.12;51.98;102333.31;5009019;28;98265;-87
2021/09/22 09:45:31;;;;;;;;;;;;;;;20.41;51.21;102340.78;5019835;28;97366;-87
2021/09/22 09:48:04;;;;;;;;;;;;;;;20.47;50.47;102336.91;5031195;28;96845;-87
2021/09/22 09:50:31;;;;;;;;;;;;;;;20.33;51.15;102334.94;5027219;28;99008;-87
2021/09/22 09:55:41;;;;;;;;;;;;;;;20.67;50.48;102336.75;5026034;28;96817;-87
2021/09/22 09:58:15;;;;;;;;;;;;;;;20.46;50.89;102330.69;5043274;28;96624;-87
2021/09/22 10:00:49;;;;;;;;;;;;;;;20.42;50.79;102321.03;5036298;28;99547;-86
2021/09/22 10:03:19;;;;;;;;;;;;;;;20.32;51.26;102334.97;5053323;27;99734;-83
2021/09/22 10:05:49;;;;;;;;;;;;;;;20.97;49.58;102332.41;5194232;22;98852;-88
2021/09/22 10:08:20;;;;;;;;;;;;;;;21.00;49.14;102332.22;5007462;28;99055;-86
2021/09/22 10:10:50;;;;;;;;;;;;;;;20.55;50.15;102327.50;4997368;28;99277;-86
2021/09/22 10:13:23;;;;;;;;;;;;;;;20.20;51.18;102334.66;4990826;28;97940;-85
2021/09/22 10:15:54;;;;;;;;;;;;;;;21.30;48.21;102326.19;5005817;28;97188;-88
2021/09/22 10:18:20;;;;;;;;;;;;;;;21.01;48.73;102330.41;5010168;28;96751;-87
2021/09/22 10:20:48;;;;;;;;;;;;;;;21.32;48.36;102335.03;5007787;28;98307;-87
2021/09/22 10:23:17;;;;;;;;;;;;;;;21.31;47.94;102320.72;5005360;28;100518;-85
2021/09/22 10:25:47;;;;;;;;;;;;;;;21.60;47.73;102323.56;5001334;28;96795;-86
2021/09/22 10:28:14;;;;;;;;;;;;;;;21.25;48.14;102325.56;5010808;28;96751;-86
2021/09/22 10:30:42;;;;;;;;;;;;;;;21.20;47.97;102330.34;5009605;28;98215;-86
2021/09/22 10:36:07;;;;;;;;;;;;;;;21.35;48.31;102314.22;5001677;28;97716;-86
2021/09/22 10:38:43;;;;;;;;;;;;;;;21.40;47.88;102317.50;5003495;28;96947;-86
2021/09/22 10:41:26;;;;;;;;;;;;;;;21.19;47.35;102312.47;4994145;28;97958;-86
2021/09/22 10:43:53;;;;;;;;;;;;;;;21.65;46.85;102317.00;4997250;28;96891;-86
2021/09/22 10:46:21;;;;;;;;;;;;;;;22.05;45.95;102309.34;5008179;28;97150;-85
2021/09/22 10:49:17;;;;;;;;;;;;;;;21.35;46.44;102310.66;5007430;28;97714;-87
2021/09/22 10:51:48;;;;;;;;;;;;;;;21.64;46.26;102307.19;5017163;22;101197;-87
2021/09/22 10:54:15;;;;;;;;;;;;;;;21.84;45.51;102300.66;5012504;28;98489;-86
2021/09/22 10:56:52;;;;;;;;;;;;;;;21.86;45.24;102304.97;5028137;28;95919;-86
2021/09/22 10:59:36;;;;;;;;;;;;;;;21.42;46.32;102307.53;5025274;27;96663;-86
2021/09/22 11:02:03;;;;;;;;;;;;;;;20.78;47.59;102303.94;5028370;27;99060;-87
2021/09/22 11:04:48;;;;;;;;;;;;;;;21.63;45.55;102297.38;5023788;28;100249;-88
2021/09/22 11:07:16;;;;;;;;;;;;;;;21.14;45.65;102299.22;5019621;28;96531;-91
2021/09/22 11:09:42;;;;;;;;;;;;;;;20.38;47.04;102297.97;5017968;28;96585;-93
2021/09/22 11:12:13;;;;;;;;;;;;;;;20.89;46.07;102291.66;4998546;28;98283;-90
2021/09/22 11:14:49;;;;;;;;;;;;;;;21.26;45.66;102297.75;5002661;28;98639;-91
2021/09/22 11:19:59;;;;;;;;;;;;;;;21.72;45.06;102296.88;5022310;27;96052;-91
2021/09/22 11:25:20;;;;;;;;;;;;;;;22.65;43.04;102293.97;5032880;27;96833;-91
2021/09/22 11:30:34;;;;;;;;;;;;;;;22.43;43.77;102286.38;5006540;28;96105;-89
2021/09/22 11:33:04;;;;;;;;;;;;;;;22.24;43.96;102296.50;4989901;28;97859;-88
2021/09/22 11:35:37;;;;;;;;;;;;;;;22.12;43.97;102283.78;4995419;28;96629;-88
2021/09/22 11:38:03;;;;;;;;;;;;;;;22.25;43.44;102282.94;4993219;28;97362;-87
2021/09/22 11:40:31;;;;;;;;;;;;;;;22.18;43.36;102276.22;5011590;28;96014;-87
2021/09/22 11:43:03;;;;;;;;;;;;;;;22.19;43.06;102274.38;5011325;28;98201;-86
2021/09/22 11:45:31;;;;;;;;;;;;;;;22.07;43.49;102267.03;4997941;28;96689;-85
2021/09/22 11:47:59;;;;;;;;;;;;;;;21.51;44.09;102273.00;5014275;28;96531;-85
2021/09/22 11:50:29;;;;;;;;;;;;;;;21.66;44.52;102272.97;5006767;28;96165;-87
2021/09/22 11:52:56;;;;;;;;;;;;;;;22.44;43.26;102265.69;5006744;28;99542;-87
2021/09/22 11:55:24;;;;;;;;;;;;;;;22.42;43.00;102270.28;5001912;28;99845;-85
2021/09/22 11:57:51;;;;;;;;;;;;;;;22.55;42.03;102271.28;5007241;28;97328;-84
2021/09/22 12:00:28;;;;;;;;;;;;;;;22.51;41.57;102270.56;4990305;28;96018;-85
2021/09/22 12:02:56;;;;;;;;;;;;;;;22.73;40.60;102271.97;5006495;28;99631;-84
2021/09/22 12:05:31;;;;;;;;;;;;;;;21.86;42.64;102278.06;5008924;28;96799;-84
2021/09/22 12:07:57;;;;;;;;;;;;;;;22.18;41.85;102272.66;5000059;28;96479;-86
2021/09/22 12:13:51;;;;;;;;;;;;;;;22.43;41.56;102262.13;5001647;28;96768;-84
2021/09/22 12:19:06;;;;;;;;;;;;;;;21.95;42.58;102260.53;4992573;28;96664;-88
2021/09/22 12:21:34;;;;;;;;;;;;;;;22.58;41.13;102247.69;4999452;28;96659;-88
2021/09/22 12:24:05;;;;;;;;;;;;;;;22.40;41.02;102243.44;4998518;28;101145;-88
2021/09/22 12:26:32;;;;;;;;;;;;;;;21.99;41.60;102242.41;4991718;28;98013;-88
2021/09/22 12:29:07;;;;;;;;;;;;;;;21.52;42.92;102239.78;4989366;28;96867;-88
2021/09/22 12:31:42;;;;;;;;;;;;;;;22.55;41.16;102242.50;4983160;28;96850;-88
2021/09/22 12:34:19;;;;;;;;;;;;;;;22.95;40.15;102227.41;4993133;28;100131;-87
2021/09/22 12:36:54;;;;;;;;;;;;;;;22.81;40.13;102230.13;4992915;28;100122;-88
2021/09/22 12:39:22;;;;;;;;;;;;;;;22.28;40.57;102228.03;4983008;28;96560;-86
2021/09/22 12:41:59;;;;;;;;;;;;;;;22.22;41.06;102228.41;4991210;28;96706;-86
2021/09/22 12:47:14;;;;;;;;;;;;;;;22.31;40.79;102225.19;4990124;28;96885;-86
2021/09/22 12:52:23;;;;;;;;;;;;;;;22.80;39.90;102214.03;5000847;28;96820;-86
2021/09/22 12:54:56;;;;;;;;;;;;;;;22.41;41.41;102229.03;4993665;28;101737;-85
2021/09/22 12:57:23;;;;;;;;;;;;;;;22.61;40.33;102222.41;5005120;28;97891;-86
2021/09/22 13:02:45;;;;;;;;;;;;;;;22.16;41.84;102220.72;5001476;28;96238;-84
2021/09/22 13:05:29;;;;;;;;;;;;;;;23.38;39.27;102220.09;5007090;28;100005;-83
2021/09/22 13:08:07;;;;;;;;;;;;;;;23.47;39.65;102218.66;4997536;28;98253;-87
2021/09/22 13:10:48;;;;;;;;;;;;;;;23.17;39.84;102218.78;4990986;28;96645;-87
2021/09/22 13:13:16;;;;;;;;;;;;;;;22.82;40.20;102209.44;4983250;28;96740;-87
2021/09/22 13:15:48;;;;;;;;;;;;;;;22.88;40.27;102209.03;4995689;28;99658;-91
2021/09/22 13:18:15;;;;;;;;;;;;;;;22.62;40.84;102208.84;4991719;28;97826;-88
2021/09/22 13:20:42;;;;;;;;;;;;;;;23.25;40.04;102202.13;4988830;28;96890;-86
2021/09/22 13:23:25;;;;;;;;;;;;;;;22.92;40.08;102194.38;4984255;28;96857;-86
2021/09/22 13:25:52;;;;;;;;;;;;;;;23.13;39.55;102193.00;4993223;28;96730;-87
2021/09/22 13:28:18;;;;;;;;;;;;;;;23.29;39.40;102196.44;4997157;28;98113;-87
2021/09/22 13:30:45;;;;;;;;;;;;;;;23.25;39.25;102185.94;4998157;28;96749;-87
2021/09/22 13:33:12;;;;;;;;;;;;;;;23.17;39.66;102177.50;4986155;28;96766;-88
2021/09/22 13:35:39;;;;;;;;;;;;;;;23.39;39.19;102183.19;4983951;28;100048;-87
2021/09/22 13:38:05;;;;;;;;;;;;;;;23.93;38.44;102183.16;4980193;28;99235;-91
2021/09/22 13:40:34;;;;;;;;;;;;;;;23.88;38.53;102179.91;4996596;28;96835;-85
2021/09/22 13:43:09;;;;;;;;;;;;;;;24.27;38.07;102173.59;5011071;28;96659;-81
2021/09/22 13:45:36;;;;;;;;;;;;;;;23.78;38.53;102172.44;4996943;28;96852;-86
2021/09/22 13:48:04;;;;;;;;;;;;;;;23.72;39.30;102172.00;5003349;28;99289;-87
2021/09/22 13:50:31;;;;;;;;;;;;;;;23.76;38.91;102170.84;4988523;28;96868;-88
2021/09/22 13:52:58;;;;;;;;;;;;;;;23.46;39.48;102168.31;4995366;28;96688;-87
2021/09/22 13:55:24;;;;;;;;;;;;;;;23.82;38.49;102165.88;5001013;28;100759;-86
2021/09/22 13:58:00;;;;;;;;;;;;;;;23.66;38.90;102157.09;5000638;28;98096;-87
2021/09/22 14:00:28;;;;;;;;;;;;;;;23.86;38.49;102149.47;5007662;28;96195;-87
2021/09/22 14:02:55;;;;;;;;;;;;;;;23.14;39.04;102157.00;5002548;28;96013;-88
2021/09/22 14:05:22;;;;;;;;;;;;;;;22.36;39.81;102147.66;5000635;28;98435;-86
2021/09/22 14:07:50;;;;;;;;;;;;;;;22.96;39.31;102148.28;4994553;28;99743;-88
2021/09/22 14:10:17;;;;;;;;;;;;;;;23.40;38.59;102136.38;4991763;28;96458;-87
2021/09/22 14:12:44;;;;;;;;;;;;;;;24.10;37.59;102145.03;4993425;28;97653;-88